sensor_id;sensor_type;location;lat;lon;timestamp;P1;durP1;ratioP1;P2;durP2;ratioP2
75667;SDS011;64266;48.798;44.756;2023-03-01T00:00:04;15.60;;;8.00;;
75667;SDS011;64266;48.798;44.756;2023-03-01T00:05:12;16.67;;;8.10;;
75667;SDS011;64266;48.798;44.756;2023-03-01T00:10:15;15.18;;;7.40;;
75667;SDS011;64266;48.798;44.756;2023-03-01T00:15:18;15.10;;;7.50;;
75667;SDS011;64266;48.798;44.756;2023-03-01T00:20:21;14.45;;;7.07;;
75667;SDS011;64266;48.798;44.756;2023-03-01T00:25:24;14.45;;;7.03;;
75667;SDS011;64266;48.798;44.756;2023-03-01T00:30:27;13.77;;;7.32;;
75667;SDS011;64266;48.798;44.756;2023-03-01T00:35:31;11.85;;;6.15;;
75667;SDS011;64266;48.798;44.756;2023-03-01T00:40:35;12.98;;;7.35;;
75667;SDS011;64266;48.798;44.756;2023-03-01T00:45:39;11.63;;;6.50;;
75667;SDS011;64266;48.798;44.756;2023-03-01T00:50:43;12.00;;;6.97;;
75667;SDS011;64266;48.798;44.756;2023-03-01T00:55:46;14.13;;;7.43;;
75667;SDS011;64266;48.798;44.756;2023-03-01T01:00:49;11.85;;;6.57;;
75667;SDS011;64266;48.798;44.756;2023-03-01T01:05:52;14.98;;;8.43;;
75667;SDS011;64266;48.798;44.756;2023-03-01T01:10:55;15.80;;;8.20;;
75667;SDS011;64266;48.798;44.756;2023-03-01T01:16:01;16.75;;;9.07;;
75667;SDS011;64266;48.798;44.756;2023-03-01T01:21:05;15.10;;;7.82;;
75667;SDS011;64266;48.798;44.756;2023-03-01T01:26:16;15.95;;;9.38;;
75667;SDS011;64266;48.798;44.756;2023-03-01T01:31:22;16.33;;;9.27;;
75667;SDS011;64266;48.798;44.756;2023-03-01T01:36:26;18.90;;;10.57;;
75667;SDS011;64266;48.798;44.756;2023-03-01T01:41:30;18.38;;;9.88;;
75667;SDS011;64266;48.798;44.756;2023-03-01T01:46:35;17.80;;;9.45;;
75667;SDS011;64266;48.798;44.756;2023-03-01T01:51:42;21.02;;;10.57;;
75667;SDS011;64266;48.798;44.756;2023-03-01T01:56:50;16.48;;;9.57;;
75667;SDS011;64266;48.798;44.756;2023-03-01T02:01:57;18.75;;;10.18;;
75667;SDS011;64266;48.798;44.756;2023-03-01T02:07:14;15.98;;;8.50;;
75667;SDS011;64266;48.798;44.756;2023-03-01T02:12:21;16.60;;;8.05;;
75667;SDS011;64266;48.798;44.756;2023-03-01T02:17:27;13.02;;;7.25;;
75667;SDS011;64266;48.798;44.756;2023-03-01T02:22:31;13.02;;;6.70;;
75667;SDS011;64266;48.798;44.756;2023-03-01T02:27:38;14.57;;;7.55;;
75667;SDS011;64266;48.798;44.756;2023-03-01T02:32:48;13.70;;;6.82;;
75667;SDS011;64266;48.798;44.756;2023-03-01T02:37:52;11.40;;;6.43;;
75667;SDS011;64266;48.798;44.756;2023-03-01T02:42:59;12.80;;;7.10;;
75667;SDS011;64266;48.798;44.756;2023-03-01T02:48:02;10.63;;;6.45;;
75667;SDS011;64266;48.798;44.756;2023-03-01T02:53:10;9.32;;;5.45;;
75667;SDS011;64266;48.798;44.756;2023-03-01T02:58:18;10.95;;;5.63;;
75667;SDS011;64266;48.798;44.756;2023-03-01T03:03:22;10.77;;;6.07;;
75667;SDS011;64266;48.798;44.756;2023-03-01T03:08:25;12.00;;;6.80;;
75667;SDS011;64266;48.798;44.756;2023-03-01T03:13:28;12.25;;;6.05;;
75667;SDS011;64266;48.798;44.756;2023-03-01T03:18:30;14.88;;;6.78;;
75667;SDS011;64266;48.798;44.756;2023-03-01T03:23:33;13.63;;;6.43;;
75667;SDS011;64266;48.798;44.756;2023-03-01T03:28:35;9.80;;;5.70;;
75667;SDS011;64266;48.798;44.756;2023-03-01T03:33:41;11.02;;;6.20;;
75667;SDS011;64266;48.798;44.756;2023-03-01T03:38:44;12.00;;;6.57;;
75667;SDS011;64266;48.798;44.756;2023-03-01T03:43:48;12.48;;;5.97;;
75667;SDS011;64266;48.798;44.756;2023-03-01T03:48:50;10.43;;;5.65;;
75667;SDS011;64266;48.798;44.756;2023-03-01T03:53:53;10.93;;;6.10;;
75667;SDS011;64266;48.798;44.756;2023-03-01T03:58:55;11.27;;;6.00;;
75667;SDS011;64266;48.798;44.756;2023-03-01T04:03:58;13.90;;;6.97;;
75667;SDS011;64266;48.798;44.756;2023-03-01T04:09:06;13.75;;;6.25;;
75667;SDS011;64266;48.798;44.756;2023-03-01T04:14:09;11.65;;;6.38;;
75667;SDS011;64266;48.798;44.756;2023-03-01T04:19:12;14.35;;;6.57;;
75667;SDS011;64266;48.798;44.756;2023-03-01T04:24:16;12.57;;;6.85;;
75667;SDS011;64266;48.798;44.756;2023-03-01T04:29:20;12.18;;;6.10;;
75667;SDS011;64266;48.798;44.756;2023-03-01T04:34:23;15.40;;;5.95;;
75667;SDS011;64266;48.798;44.756;2023-03-01T04:39:25;14.07;;;6.18;;
75667;SDS011;64266;48.798;44.756;2023-03-01T04:44:28;16.52;;;6.45;;
75667;SDS011;64266;48.798;44.756;2023-03-01T04:49:32;15.05;;;7.00;;
75667;SDS011;64266;48.798;44.756;2023-03-01T04:54:34;15.95;;;7.55;;
75667;SDS011;64266;48.798;44.756;2023-03-01T04:59:38;157.02;;;13.32;;
75667;SDS011;64266;48.798;44.756;2023-03-01T05:04:41;19.02;;;7.95;;
75667;SDS011;64266;48.798;44.756;2023-03-01T05:09:47;14.23;;;7.70;;
75667;SDS011;64266;48.798;44.756;2023-03-01T05:14:54;50.80;;;10.32;;
75667;SDS011;64266;48.798;44.756;2023-03-01T05:19:57;31.40;;;9.23;;
75667;SDS011;64266;48.798;44.756;2023-03-01T05:25:01;50.88;;;10.68;;
75667;SDS011;64266;48.798;44.756;2023-03-01T05:30:06;23.95;;;8.95;;
75667;SDS011;64266;48.798;44.756;2023-03-01T05:35:16;29.90;;;9.55;;
75667;SDS011;64266;48.798;44.756;2023-03-01T05:40:21;25.58;;;8.27;;
75667;SDS011;64266;48.798;44.756;2023-03-01T05:45:29;17.42;;;7.95;;
75667;SDS011;64266;48.798;44.756;2023-03-01T05:50:40;23.30;;;9.43;;
75667;SDS011;64266;48.798;44.756;2023-03-01T05:55:46;19.67;;;8.80;;
75667;SDS011;64266;48.798;44.756;2023-03-01T06:00:51;19.17;;;8.27;;
75667;SDS011;64266;48.798;44.756;2023-03-01T06:05:56;16.73;;;8.40;;
75667;SDS011;64266;48.798;44.756;2023-03-01T06:11:01;15.52;;;7.75;;
75667;SDS011;64266;48.798;44.756;2023-03-01T06:16:07;42.67;;;9.40;;
75667;SDS011;64266;48.798;44.756;2023-03-01T06:21:16;16.00;;;8.85;;
75667;SDS011;64266;48.798;44.756;2023-03-01T06:26:24;17.23;;;8.48;;
75667;SDS011;64266;48.798;44.756;2023-03-01T06:31:28;18.83;;;8.82;;
75667;SDS011;64266;48.798;44.756;2023-03-01T06:36:48;16.58;;;8.80;;
75667;SDS011;64266;48.798;44.756;2023-03-01T06:41:52;19.08;;;8.52;;
75667;SDS011;64266;48.798;44.756;2023-03-01T06:46:56;22.33;;;10.82;;
75667;SDS011;64266;48.798;44.756;2023-03-01T06:51:59;18.52;;;8.55;;
75667;SDS011;64266;48.798;44.756;2023-03-01T06:57:05;18.08;;;8.75;;
75667;SDS011;64266;48.798;44.756;2023-03-01T07:02:12;13.60;;;7.20;;
75667;SDS011;64266;48.798;44.756;2023-03-01T07:07:16;17.40;;;8.00;;
75667;SDS011;64266;48.798;44.756;2023-03-01T07:17:49;19.92;;;7.38;;
75667;SDS011;64266;48.798;44.756;2023-03-01T07:28:38;14.90;;;8.38;;
75667;SDS011;64266;48.798;44.756;2023-03-01T07:33:42;15.98;;;8.82;;
75667;SDS011;64266;48.798;44.756;2023-03-01T07:38:51;15.20;;;8.60;;
75667;SDS011;64266;48.798;44.756;2023-03-01T07:44:02;24.17;;;11.32;;
75667;SDS011;64266;48.798;44.756;2023-03-01T07:49:14;18.48;;;9.40;;
75667;SDS011;64266;48.798;44.756;2023-03-01T07:54:17;29.38;;;14.38;;
75667;SDS011;64266;48.798;44.756;2023-03-01T07:59:20;16.35;;;8.48;;
75667;SDS011;64266;48.798;44.756;2023-03-01T08:04:41;16.38;;;8.45;;
75667;SDS011;64266;48.798;44.756;2023-03-01T08:10:20;14.05;;;7.65;;
75667;SDS011;64266;48.798;44.756;2023-03-01T08:15:25;20.25;;;8.13;;
75667;SDS011;64266;48.798;44.756;2023-03-01T08:20:31;23.52;;;11.75;;
75667;SDS011;64266;48.798;44.756;2023-03-01T08:25:37;15.20;;;6.95;;
75667;SDS011;64266;48.798;44.756;2023-03-01T08:30:46;15.30;;;7.15;;
75667;SDS011;64266;48.798;44.756;2023-03-01T08:36:06;17.75;;;7.07;;
75667;SDS011;64266;48.798;44.756;2023-03-01T08:41:36;13.07;;;7.22;;
75667;SDS011;64266;48.798;44.756;2023-03-01T08:46:45;15.32;;;6.70;;
75667;SDS011;64266;48.798;44.756;2023-03-01T08:52:06;13.15;;;6.65;;
75667;SDS011;64266;48.798;44.756;2023-03-01T08:57:20;15.73;;;7.20;;
75667;SDS011;64266;48.798;44.756;2023-03-01T09:02:50;13.02;;;6.40;;
75667;SDS011;64266;48.798;44.756;2023-03-01T09:07:54;18.67;;;6.45;;
75667;SDS011;64266;48.798;44.756;2023-03-01T09:13:01;12.13;;;6.72;;
75667;SDS011;64266;48.798;44.756;2023-03-01T09:18:05;25.25;;;9.63;;
75667;SDS011;64266;48.798;44.756;2023-03-01T09:23:09;15.30;;;7.60;;
75667;SDS011;64266;48.798;44.756;2023-03-01T09:33:48;14.35;;;6.50;;
75667;SDS011;64266;48.798;44.756;2023-03-01T09:38:53;16.92;;;8.85;;
75667;SDS011;64266;48.798;44.756;2023-03-01T09:44:00;15.90;;;6.93;;
75667;SDS011;64266;48.798;44.756;2023-03-01T09:49:19;14.60;;;6.53;;
75667;SDS011;64266;48.798;44.756;2023-03-01T09:54:39;13.40;;;6.70;;
75667;SDS011;64266;48.798;44.756;2023-03-01T10:15:56;15.90;;;7.10;;
75667;SDS011;64266;48.798;44.756;2023-03-01T10:21:12;25.00;;;7.20;;
75667;SDS011;64266;48.798;44.756;2023-03-01T10:31:45;17.27;;;9.27;;
75667;SDS011;64266;48.798;44.756;2023-03-01T10:36:55;12.82;;;6.72;;
75667;SDS011;64266;48.798;44.756;2023-03-01T10:42:03;15.43;;;7.78;;
75667;SDS011;64266;48.798;44.756;2023-03-01T10:47:19;15.70;;;7.13;;
75667;SDS011;64266;48.798;44.756;2023-03-01T10:52:30;13.45;;;7.53;;
75667;SDS011;64266;48.798;44.756;2023-03-01T10:57:39;14.23;;;7.75;;
75667;SDS011;64266;48.798;44.756;2023-03-01T11:02:47;15.45;;;7.90;;
75667;SDS011;64266;48.798;44.756;2023-03-01T11:07:57;14.75;;;7.43;;
75667;SDS011;64266;48.798;44.756;2023-03-01T11:13:19;16.48;;;8.02;;
75667;SDS011;64266;48.798;44.756;2023-03-01T11:18:35;20.05;;;7.70;;
75667;SDS011;64266;48.798;44.756;2023-03-01T11:23:49;18.20;;;7.50;;
75667;SDS011;64266;48.798;44.756;2023-03-01T11:28:53;13.50;;;7.63;;
75667;SDS011;64266;48.798;44.756;2023-03-01T11:34:04;14.18;;;7.00;;
75667;SDS011;64266;48.798;44.756;2023-03-01T11:44:40;13.10;;;7.05;;
75667;SDS011;64266;48.798;44.756;2023-03-01T12:05:38;18.85;;;7.78;;
75667;SDS011;64266;48.798;44.756;2023-03-01T12:11:10;18.00;;;7.97;;
75667;SDS011;64266;48.798;44.756;2023-03-01T12:55:56;23.17;;;9.35;;
75667;SDS011;64266;48.798;44.756;2023-03-01T13:11:20;19.33;;;9.68;;
75667;SDS011;64266;48.798;44.756;2023-03-01T13:27:08;18.75;;;8.88;;
75667;SDS011;64266;48.798;44.756;2023-03-01T13:32:23;15.68;;;8.65;;
75667;SDS011;64266;48.798;44.756;2023-03-01T13:37:45;20.00;;;10.45;;
75667;SDS011;64266;48.798;44.756;2023-03-01T13:42:52;19.52;;;9.52;;
75667;SDS011;64266;48.798;44.756;2023-03-01T13:48:09;19.00;;;9.73;;
75667;SDS011;64266;48.798;44.756;2023-03-01T13:53:18;21.10;;;9.68;;
75667;SDS011;64266;48.798;44.756;2023-03-01T13:58:27;46.05;;;22.70;;
75667;SDS011;64266;48.798;44.756;2023-03-01T14:03:41;20.83;;;9.98;;
75667;SDS011;64266;48.798;44.756;2023-03-01T14:08:46;24.52;;;9.93;;
75667;SDS011;64266;48.798;44.756;2023-03-01T14:19:34;20.90;;;9.00;;
75667;SDS011;64266;48.798;44.756;2023-03-01T14:24:39;17.13;;;8.88;;
75667;SDS011;64266;48.798;44.756;2023-03-01T14:29:57;16.15;;;8.45;;
75667;SDS011;64266;48.798;44.756;2023-03-01T14:35:26;16.38;;;8.50;;
75667;SDS011;64266;48.798;44.756;2023-03-01T14:40:32;14.60;;;7.43;;
75667;SDS011;64266;48.798;44.756;2023-03-01T14:50:43;14.90;;;8.48;;
75667;SDS011;64266;48.798;44.756;2023-03-01T14:55:50;17.20;;;9.27;;
75667;SDS011;64266;48.798;44.756;2023-03-01T15:00:56;18.08;;;9.77;;
75667;SDS011;64266;48.798;44.756;2023-03-01T15:06:01;17.13;;;9.32;;
75667;SDS011;64266;48.798;44.756;2023-03-01T15:11:15;17.27;;;8.77;;
75667;SDS011;64266;48.798;44.756;2023-03-01T15:16:33;18.70;;;9.30;;
75667;SDS011;64266;48.798;44.756;2023-03-01T15:21:50;18.75;;;9.13;;
75667;SDS011;64266;48.798;44.756;2023-03-01T15:32:28;15.45;;;8.23;;
75667;SDS011;64266;48.798;44.756;2023-03-01T15:37:36;15.80;;;8.18;;
75667;SDS011;64266;48.798;44.756;2023-03-01T15:42:42;17.17;;;8.65;;
75667;SDS011;64266;48.798;44.756;2023-03-01T15:47:48;15.48;;;7.97;;
75667;SDS011;64266;48.798;44.756;2023-03-01T15:52:55;15.30;;;8.10;;
75667;SDS011;64266;48.798;44.756;2023-03-01T15:58:02;14.40;;;7.88;;
75667;SDS011;64266;48.798;44.756;2023-03-01T16:03:10;13.07;;;7.90;;
75667;SDS011;64266;48.798;44.756;2023-03-01T16:08:14;12.60;;;7.35;;
75667;SDS011;64266;48.798;44.756;2023-03-01T16:13:17;17.25;;;8.50;;
75667;SDS011;64266;48.798;44.756;2023-03-01T16:18:21;15.68;;;7.70;;
75667;SDS011;64266;48.798;44.756;2023-03-01T16:23:25;14.38;;;8.00;;
75667;SDS011;64266;48.798;44.756;2023-03-01T16:28:27;14.95;;;8.60;;
75667;SDS011;64266;48.798;44.756;2023-03-01T16:33:31;13.55;;;8.40;;
75667;SDS011;64266;48.798;44.756;2023-03-01T16:38:35;18.75;;;4.90;;
75667;SDS011;64266;48.798;44.756;2023-03-01T16:43:37;3.53;;;1.52;;
75667;SDS011;64266;48.798;44.756;2023-03-01T16:48:41;3.70;;;0.85;;
75667;SDS011;64266;48.798;44.756;2023-03-01T16:53:43;2.72;;;0.95;;
75667;SDS011;64266;48.798;44.756;2023-03-01T16:58:48;3.63;;;0.98;;
75667;SDS011;64266;48.798;44.756;2023-03-01T17:03:51;5.18;;;1.27;;
75667;SDS011;64266;48.798;44.756;2023-03-01T17:08:54;3.55;;;0.65;;
75667;SDS011;64266;48.798;44.756;2023-03-01T17:13:56;3.85;;;0.88;;
75667;SDS011;64266;48.798;44.756;2023-03-01T17:18:59;2.20;;;0.80;;
75667;SDS011;64266;48.798;44.756;2023-03-01T17:24:02;3.03;;;0.82;;
75667;SDS011;64266;48.798;44.756;2023-03-01T17:29:04;2.17;;;0.90;;
75667;SDS011;64266;48.798;44.756;2023-03-01T17:34:07;2.85;;;0.90;;
75667;SDS011;64266;48.798;44.756;2023-03-01T17:39:10;5.13;;;1.30;;
75667;SDS011;64266;48.798;44.756;2023-03-01T17:44:13;4.55;;;1.17;;
75667;SDS011;64266;48.798;44.756;2023-03-01T17:49:16;2.55;;;0.68;;
75667;SDS011;64266;48.798;44.756;2023-03-01T17:54:19;4.88;;;1.35;;
75667;SDS011;64266;48.798;44.756;2023-03-01T17:59:21;2.95;;;0.77;;
75667;SDS011;64266;48.798;44.756;2023-03-01T18:04:24;4.68;;;1.00;;
75667;SDS011;64266;48.798;44.756;2023-03-01T18:09:26;3.85;;;0.70;;
75667;SDS011;64266;48.798;44.756;2023-03-01T18:14:29;4.65;;;0.90;;
75667;SDS011;64266;48.798;44.756;2023-03-01T18:19:34;6.13;;;1.23;;
75667;SDS011;64266;48.798;44.756;2023-03-01T18:24:37;5.03;;;1.20;;
75667;SDS011;64266;48.798;44.756;2023-03-01T18:29:40;3.55;;;1.27;;
75667;SDS011;64266;48.798;44.756;2023-03-01T18:34:43;3.22;;;0.93;;
75667;SDS011;64266;48.798;44.756;2023-03-01T18:39:49;3.78;;;1.23;;
75667;SDS011;64266;48.798;44.756;2023-03-01T18:44:53;5.88;;;1.38;;
75667;SDS011;64266;48.798;44.756;2023-03-01T18:49:55;5.82;;;1.48;;
75667;SDS011;64266;48.798;44.756;2023-03-01T18:54:58;4.57;;;1.50;;
75667;SDS011;64266;48.798;44.756;2023-03-01T19:00:02;6.30;;;1.73;;
75667;SDS011;64266;48.798;44.756;2023-03-01T19:05:05;6.82;;;1.80;;
75667;SDS011;64266;48.798;44.756;2023-03-01T19:10:08;8.38;;;2.05;;
75667;SDS011;64266;48.798;44.756;2023-03-01T19:15:13;6.55;;;2.20;;
75667;SDS011;64266;48.798;44.756;2023-03-01T19:20:17;7.95;;;2.10;;
75667;SDS011;64266;48.798;44.756;2023-03-01T19:25:19;6.55;;;2.40;;
75667;SDS011;64266;48.798;44.756;2023-03-01T19:30:22;5.22;;;1.95;;
75667;SDS011;64266;48.798;44.756;2023-03-01T19:35:25;7.80;;;2.72;;
75667;SDS011;64266;48.798;44.756;2023-03-01T19:40:28;6.72;;;2.15;;
75667;SDS011;64266;48.798;44.756;2023-03-01T19:45:30;9.32;;;2.53;;
75667;SDS011;64266;48.798;44.756;2023-03-01T19:50:34;7.80;;;2.42;;
75667;SDS011;64266;48.798;44.756;2023-03-01T19:55:39;6.18;;;2.53;;
75667;SDS011;64266;48.798;44.756;2023-03-01T20:00:43;5.35;;;2.17;;
75667;SDS011;64266;48.798;44.756;2023-03-01T20:05:47;4.85;;;1.77;;
75667;SDS011;64266;48.798;44.756;2023-03-01T20:10:49;4.95;;;1.95;;
75667;SDS011;64266;48.798;44.756;2023-03-01T20:15:54;7.38;;;2.10;;
75667;SDS011;64266;48.798;44.756;2023-03-01T20:20:57;5.22;;;2.00;;
75667;SDS011;64266;48.798;44.756;2023-03-01T20:26:02;6.78;;;2.10;;
75667;SDS011;64266;48.798;44.756;2023-03-01T20:31:08;5.45;;;2.03;;
75667;SDS011;64266;48.798;44.756;2023-03-01T20:36:14;8.27;;;2.33;;
75667;SDS011;64266;48.798;44.756;2023-03-01T20:41:17;6.50;;;2.10;;
75667;SDS011;64266;48.798;44.756;2023-03-01T20:46:22;6.30;;;2.40;;
75667;SDS011;64266;48.798;44.756;2023-03-01T20:51:28;6.38;;;2.30;;
75667;SDS011;64266;48.798;44.756;2023-03-01T20:56:31;4.68;;;2.10;;
75667;SDS011;64266;48.798;44.756;2023-03-01T21:01:36;6.22;;;2.13;;
75667;SDS011;64266;48.798;44.756;2023-03-01T21:06:41;4.95;;;2.13;;
75667;SDS011;64266;48.798;44.756;2023-03-01T21:11:43;4.35;;;2.13;;
75667;SDS011;64266;48.798;44.756;2023-03-01T21:16:47;5.75;;;2.25;;
75667;SDS011;64266;48.798;44.756;2023-03-01T21:21:51;4.22;;;1.60;;
75667;SDS011;64266;48.798;44.756;2023-03-01T21:26:54;5.70;;;1.60;;
75667;SDS011;64266;48.798;44.756;2023-03-01T21:31:57;4.28;;;1.60;;
75667;SDS011;64266;48.798;44.756;2023-03-01T21:37:00;7.28;;;1.63;;
75667;SDS011;64266;48.798;44.756;2023-03-01T21:42:03;2.72;;;1.00;;
75667;SDS011;64266;48.798;44.756;2023-03-01T21:47:06;5.43;;;1.30;;
75667;SDS011;64266;48.798;44.756;2023-03-01T21:52:09;4.63;;;1.50;;
75667;SDS011;64266;48.798;44.756;2023-03-01T21:57:18;6.22;;;1.58;;
75667;SDS011;64266;48.798;44.756;2023-03-01T22:02:20;5.60;;;1.73;;
75667;SDS011;64266;48.798;44.756;2023-03-01T22:07:23;4.72;;;1.50;;
75667;SDS011;64266;48.798;44.756;2023-03-01T22:12:25;4.35;;;1.35;;
75667;SDS011;64266;48.798;44.756;2023-03-01T22:17:28;5.40;;;1.17;;
75667;SDS011;64266;48.798;44.756;2023-03-01T22:22:31;5.97;;;1.55;;
75667;SDS011;64266;48.798;44.756;2023-03-01T22:27:34;3.90;;;1.17;;
75667;SDS011;64266;48.798;44.756;2023-03-01T22:32:38;6.20;;;1.27;;
75667;SDS011;64266;48.798;44.756;2023-03-01T22:37:42;3.45;;;1.00;;
75667;SDS011;64266;48.798;44.756;2023-03-01T22:42:45;3.50;;;0.85;;
75667;SDS011;64266;48.798;44.756;2023-03-01T22:47:48;4.28;;;1.10;;
75667;SDS011;64266;48.798;44.756;2023-03-01T22:52:51;5.45;;;1.00;;
75667;SDS011;64266;48.798;44.756;2023-03-01T22:57:54;6.95;;;1.60;;
75667;SDS011;64266;48.798;44.756;2023-03-01T23:02:57;5.80;;;1.20;;
75667;SDS011;64266;48.798;44.756;2023-03-01T23:08:01;4.40;;;1.00;;
75667;SDS011;64266;48.798;44.756;2023-03-01T23:13:04;3.60;;;1.13;;
75667;SDS011;64266;48.798;44.756;2023-03-01T23:18:06;7.63;;;1.40;;
75667;SDS011;64266;48.798;44.756;2023-03-01T23:23:10;3.90;;;0.93;;
75667;SDS011;64266;48.798;44.756;2023-03-01T23:28:13;4.57;;;1.20;;
75667;SDS011;64266;48.798;44.756;2023-03-01T23:33:16;3.67;;;1.20;;
75667;SDS011;64266;48.798;44.756;2023-03-01T23:38:19;2.35;;;0.80;;
75667;SDS011;64266;48.798;44.756;2023-03-01T23:43:21;5.63;;;1.10;;
75667;SDS011;64266;48.798;44.756;2023-03-01T23:48:25;3.30;;;1.02;;
75667;SDS011;64266;48.798;44.756;2023-03-01T23:53:28;4.00;;;0.90;;
75667;SDS011;64266;48.798;44.756;2023-03-01T23:58:31;2.58;;;0.95;;
